Time;durP1;ratioP1;P1;durP2;ratioP2;P2;SDS_P1;SDS_P2;PMS_P1;PMS_P2;Temp;Humidity;BMP_temperature;BMP_pressure;BME280_temperature;BME280_humidity;BME280_pressure;Samples;Min_cycle;Max_cycle;Signal;HPM_P1;HPM_P2
2022/04/16 00:01:41;;;;;;;18.55;11.35;;;8.50;99.90;;;;;;5132214;27;20035;-44
2022/04/16 00:04:08;;;;;;;18.00;11.32;;;8.40;99.90;;;;;;5130359;27;20043;-47
2022/04/16 00:06:33;;;;;;;16.65;11.93;;;8.40;99.90;;;;;;5130082;27;20031;-49
2022/04/16 00:09:00;;;;;;;16.17;11.23;;;8.30;99.90;;;;;;5131455;27;20071;-47
2022/04/16 00:11:26;;;;;;;19.73;11.85;;;8.20;99.90;;;;;;5131035;27;20039;-49
2022/04/16 00:13:51;;;;;;;17.52;12.20;;;8.30;99.90;;;;;;5132581;27;20034;-45
2022/04/16 00:16:17;;;;;;;16.73;12.18;;;8.10;99.90;;;;;;5130397;27;20067;-45
2022/04/16 00:18:44;;;;;;;16.33;11.82;;;8.00;99.90;;;;;;5130810;27;20538;-49
2022/04/16 00:21:10;;;;;;;19.27;12.32;;;8.00;99.90;;;;;;5133358;27;20031;-46
2022/04/16 00:23:41;;;;;;;19.65;12.85;;;7.90;99.90;;;;;;5131034;27;20047;-46
2022/04/16 00:26:07;;;;;;;17.92;12.02;;;7.80;99.90;;;;;;5133063;27;20035;-46
2022/04/16 00:28:35;;;;;;;16.83;11.85;;;7.80;99.90;;;;;;5130797;27;20031;-46
2022/04/16 00:31:01;;;;;;;18.48;12.98;;;7.80;99.90;;;;;;5113709;27;20039;-45
2022/04/16 00:33:27;;;;;;;20.67;12.98;;;7.80;99.90;;;;;;5112389;27;20118;-44
2022/04/16 00:35:52;;;;;;;19.60;12.73;;;7.70;99.90;;;;;;5131114;27;20188;-47
2022/04/16 00:38:18;;;;;;;16.67;12.60;;;7.80;99.90;;;;;;5131981;27;20039;-48
2022/04/16 00:40:44;;;;;;;19.90;12.52;;;7.60;99.90;;;;;;5133086;27;20122;-46
2022/04/16 00:43:21;;;;;;;19.55;12.55;;;7.60;99.90;;;;;;5113736;27;21295;-46
2022/04/16 00:45:47;;;;;;;19.10;12.57;;;7.60;99.90;;;;;;5132540;27;20039;-46
2022/04/16 00:48:13;;;;;;;21.35;13.43;;;7.50;99.90;;;;;;5130759;27;20170;-45
2022/04/16 00:50:39;;;;;;;18.88;12.75;;;7.80;99.90;;;;;;5130186;27;20122;-46
2022/04/16 00:53:05;;;;;;;18.80;12.65;;;7.40;99.90;;;;;;5129685;27;20095;-47
2022/04/16 00:55:36;;;;;;;19.02;13.73;;;7.40;99.90;;;;;;5130111;27;20043;-46
2022/04/16 00:58:02;;;;;;;21.27;13.40;;;7.40;99.90;;;;;;5131822;27;20062;-48
2022/04/16 01:00:28;;;;;;;18.58;13.05;;;7.40;99.90;;;;;;5129835;27;20042;-47
2022/04/16 01:02:56;;;;;;;18.83;12.82;;;7.40;99.90;;;;;;5129563;27;20058;-47
2022/04/16 01:05:22;;;;;;;18.10;13.27;;;7.30;99.90;;;;;;5129313;27;20077;-46
2022/04/16 01:07:53;;;;;;;21.55;13.50;;;7.30;99.90;;;;;;5130745;27;20038;-46
2022/04/16 01:10:25;;;;;;;22.50;14.55;;;7.30;99.90;;;;;;5128670;27;20031;-46
2022/04/16 01:12:52;;;;;;;23.80;14.05;;;7.20;99.90;;;;;;5132203;27;20035;-46
2022/04/16 01:15:20;;;;;;;21.58;13.68;;;7.20;99.90;;;;;;5127890;27;20658;-45
2022/04/16 01:17:47;;;;;;;21.25;14.30;;;7.20;99.90;;;;;;5113078;27;20035;-42
2022/04/16 01:20:14;;;;;;;21.25;14.43;;;7.10;99.90;;;;;;5130083;27;20039;-44
2022/04/16 01:22:40;;;;;;;24.33;14.82;;;7.10;99.90;;;;;;5132234;27;20110;-43
2022/04/16 01:25:07;;;;;;;20.63;15.32;;;7.10;99.90;;;;;;5130200;27;20176;-46
2022/04/16 01:27:35;;;;;;;22.30;15.48;;;7.10;99.90;;;;;;5130382;27;20091;-46
2022/04/16 01:30:05;;;;;;;25.92;15.90;;;7.00;99.90;;;;;;5114857;27;20355;-46
2022/04/16 01:32:34;;;;;;;22.67;15.70;;;7.10;99.90;;;;;;5131962;27;20478;-46
2022/04/16 01:35:00;;;;;;;20.95;14.90;;;7.10;99.90;;;;;;5136578;27;20031;-46
2022/04/16 01:37:31;;;;;;;25.08;15.50;;;7.00;99.90;;;;;;5134220;27;20054;-48
2022/04/16 01:39:58;;;;;;;22.77;15.95;;;7.00;99.90;;;;;;5132292;27;20042;-44
2022/04/16 01:42:24;;;;;;;22.25;15.68;;;6.90;99.90;;;;;;5128369;27;20134;-44
2022/04/16 01:44:51;;;;;;;22.70;15.75;;;6.90;99.90;;;;;;5129617;27;20663;-44
2022/04/16 01:47:18;;;;;;;23.35;16.10;;;6.70;99.90;;;;;;5130225;27;20035;-44
2022/04/16 01:49:43;;;;;;;25.08;16.30;;;6.90;99.90;;;;;;5129839;27;20137;-45
2022/04/16 01:52:09;;;;;;;24.20;15.95;;;6.90;99.90;;;;;;5133223;27;20533;-45
2022/04/16 01:54:36;;;;;;;25.60;15.98;;;6.80;99.90;;;;;;5130017;27;20092;-46
2022/04/16 01:57:02;;;;;;;24.60;16.75;;;6.90;99.90;;;;;;5132623;27;20100;-46
2022/04/16 01:59:29;;;;;;;25.30;16.83;;;6.90;99.90;;;;;;5109817;27;20098;-45
2022/04/16 02:01:56;;;;;;;27.65;17.55;;;6.80;99.90;;;;;;5126821;27;20045;-48
2022/04/16 02:04:23;;;;;;;26.88;16.95;;;6.80;99.90;;;;;;5109682;27;20054;-47
2022/04/16 02:06:50;;;;;;;29.75;18.40;;;6.80;99.90;;;;;;5129244;27;20028;-47
2022/04/16 02:09:17;;;;;;;26.10;17.85;;;6.80;99.90;;;;;;5114310;27;20390;-45
2022/04/16 02:11:43;;;;;;;28.63;18.63;;;6.80;99.90;;;;;;5131141;27;20067;-47
2022/04/16 02:14:09;;;;;;;27.88;17.33;;;6.80;99.90;;;;;;5112029;27;20039;-45
2022/04/16 02:16:34;;;;;;;31.02;18.35;;;6.80;99.90;;;;;;5129919;27;20041;-44
2022/04/16 02:19:00;;;;;;;31.88;18.67;;;6.90;99.90;;;;;;5127469;27;20031;-43
2022/04/16 02:21:27;;;;;;;30.27;18.63;;;7.00;99.90;;;;;;5129329;27;20039;-45
2022/04/16 02:23:53;;;;;;;27.83;18.95;;;6.90;99.90;;;;;;5129703;27;20099;-45
2022/04/16 02:26:22;;;;;;;29.77;19.85;;;7.00;99.90;;;;;;5128472;27;20031;-44
2022/04/16 02:28:50;;;;;;;32.05;19.08;;;6.90;99.90;;;;;;5130678;27;20114;-45
2022/04/16 02:31:16;;;;;;;31.90;20.13;;;6.90;99.90;;;;;;5129335;27;20062;-45
2022/04/16 02:33:42;;;;;;;28.38;19.85;;;6.90;99.90;;;;;;5129874;27;20051;-46
2022/04/16 02:36:08;;;;;;;32.85;20.75;;;6.90;99.90;;;;;;5130024;27;20047;-46
2022/04/16 02:38:40;;;;;;;33.08;20.73;;;6.90;99.90;;;;;;5133145;27;20645;-49
2022/04/16 02:41:06;;;;;;;31.10;20.30;;;6.80;99.90;;;;;;5137281;27;20045;-48
2022/04/16 02:43:32;;;;;;;34.85;21.92;;;6.80;99.90;;;;;;5135356;27;20457;-46
2022/04/16 02:48:42;;;;;;;32.50;20.50;;;6.70;99.90;;;;;;5118296;27;20065;-44
2022/04/16 02:51:08;;;;;;;34.88;22.80;;;6.70;99.90;;;;;;5131604;27;20059;-46
2022/04/16 02:53:34;;;;;;;33.67;21.38;;;6.70;99.90;;;;;;5133467;27;20046;-45
2022/04/16 02:56:00;;;;;;;34.90;22.23;;;6.70;99.90;;;;;;5131826;27;20453;-46
2022/04/16 02:58:26;;;;;;;33.33;22.05;;;6.60;99.90;;;;;;5133037;27;20038;-46
2022/04/16 03:00:54;;;;;;;35.67;22.50;;;6.70;99.90;;;;;;5134530;27;20032;-46
2022/04/16 03:03:20;;;;;;;35.38;22.27;;;6.70;99.90;;;;;;5132806;27;20042;-48
2022/04/16 03:05:46;;;;;;;34.95;23.33;;;6.60;99.90;;;;;;5133498;27;20666;-48
2022/04/16 03:08:12;;;;;;;35.15;22.95;;;6.60;99.90;;;;;;5133136;27;20026;-44
2022/04/16 03:10:39;;;;;;;33.95;22.92;;;6.70;99.90;;;;;;5132964;27;20043;-45
2022/04/16 03:13:04;;;;;;;33.60;22.13;;;6.60;99.90;;;;;;5134870;27;20037;-48
2022/04/16 03:18:14;;;;;;;36.70;22.48;;;6.60;99.90;;;;;;5131497;27;20111;-44
2022/04/16 03:20:42;;;;;;;33.88;22.75;;;6.70;99.90;;;;;;5133624;27;23560;-46
2022/04/16 03:23:09;;;;;;;37.58;23.10;;;6.50;99.90;;;;;;5132499;27;20039;-44
2022/04/16 03:25:39;;;;;;;37.15;23.65;;;6.50;99.90;;;;;;5131614;27;20034;-45
2022/04/16 03:28:05;;;;;;;38.10;22.67;;;6.60;99.90;;;;;;5132872;27;20023;-46
2022/04/16 03:30:31;;;;;;;39.08;24.30;;;6.50;99.90;;;;;;5132192;27;20542;-45
2022/04/16 03:32:56;;;;;;;35.55;23.60;;;6.50;99.90;;;;;;5134279;27;20050;-45
2022/04/16 03:35:23;;;;;;;35.45;23.42;;;6.60;99.90;;;;;;5132875;27;20669;-44
2022/04/16 03:37:50;;;;;;;36.88;24.85;;;6.60;99.90;;;;;;5132493;27;20084;-49
2022/04/16 03:40:16;;;;;;;39.35;24.40;;;6.60;99.90;;;;;;5132947;27;20047;-46
2022/04/16 03:42:45;;;;;;;38.25;24.50;;;6.60;99.90;;;;;;5136176;27;20042;-44
2022/04/16 03:45:20;;;;;;;39.17;24.98;;;6.60;99.90;;;;;;5131822;27;20700;-49
2022/04/16 03:47:50;;;;;;;38.10;23.55;;;6.60;99.90;;;;;;5132780;27;20110;-47
2022/04/16 03:50:17;;;;;;;39.88;25.63;;;6.60;99.90;;;;;;5130671;27;20085;-44
2022/04/16 03:52:44;;;;;;;36.47;24.63;;;6.60;99.90;;;;;;5134008;27;20043;-45
2022/04/16 04:00:43;;;;;;;;;;;6.60;99.90;;;;;;5131421;27;21436;-47
2022/04/16 04:03:10;;;;;;;39.40;25.27;;;6.60;99.90;;;;;;5133337;27;19911;-45
2022/04/16 04:05:37;;;;;;;41.65;26.20;;;6.60;99.90;;;;;;5133050;27;20138;-44
2022/04/16 04:08:08;;;;;;;42.88;26.75;;;6.50;99.90;;;;;;5132864;27;20027;-44
2022/04/16 04:10:35;;;;;;;43.97;26.05;;;6.60;99.90;;;;;;5131605;27;20072;-44
2022/04/16 04:13:01;;;;;;;42.20;25.65;;;6.60;99.90;;;;;;5117256;27;20061;-44
2022/04/16 04:15:29;;;;;;;40.92;26.65;;;6.70;99.90;;;;;;5131505;27;20158;-46
2022/04/16 04:17:58;;;;;;;41.33;24.90;;;6.70;99.90;;;;;;5130063;27;20672;-47
2022/04/16 04:20:25;;;;;;;41.80;26.70;;;6.70;99.90;;;;;;5130631;27;20037;-44
2022/04/16 04:22:50;;;;;;;44.67;28.33;;;6.70;99.90;;;;;;5133470;27;20031;-44
2022/04/16 04:25:16;;;;;;;43.17;28.17;;;6.60;99.90;;;;;;5134221;27;20043;-45
2022/04/16 04:27:42;;;;;;;42.50;27.60;;;6.80;99.90;;;;;;5134603;27;20037;-46
2022/04/16 04:30:08;;;;;;;46.95;28.65;;;6.70;99.90;;;;;;5135713;27;20050;-45
2022/04/16 04:32:35;;;;;;;44.00;27.98;;;6.80;99.90;;;;;;5131326;27;20046;-44
2022/04/16 04:35:02;;;;;;;44.08;28.00;;;6.80;99.90;;;;;;5129699;27;20062;-45
2022/04/16 04:37:28;;;;;;;46.58;29.95;;;6.70;99.90;;;;;;5129752;27;20053;-44
2022/04/16 04:39:53;;;;;;;42.60;28.10;;;6.80;99.90;;;;;;5134668;27;20039;-46
2022/04/16 04:42:27;;;;;;;51.95;29.30;;;6.80;99.90;;;;;;5130668;27;20398;-48
2022/04/16 04:44:53;;;;;;;49.00;29.33;;;6.70;99.90;;;;;;5132238;27;20043;-47
2022/04/16 04:47:18;;;;;;;45.50;29.20;;;6.80;99.90;;;;;;5130136;27;20026;-48
2022/04/16 04:49:44;;;;;;;47.35;28.95;;;6.80;99.90;;;;;;5133540;27;20056;-43
2022/04/16 04:52:10;;;;;;;47.63;29.58;;;6.80;99.90;;;;;;5132445;27;20573;-45
2022/04/16 04:54:36;;;;;;;48.58;28.73;;;6.80;99.90;;;;;;5131981;27;20031;-48
2022/04/16 04:57:05;;;;;;;46.67;28.55;;;6.80;99.90;;;;;;5128279;27;20121;-47
2022/04/16 04:59:30;;;;;;;48.30;29.60;;;6.80;99.90;;;;;;5110119;27;20037;-45
2022/04/16 05:01:56;;;;;;;47.90;30.20;;;6.90;99.90;;;;;;5130039;27;20402;-46
2022/04/16 05:04:21;;;;;;;48.00;30.10;;;6.80;99.90;;;;;;5130441;27;20047;-46
2022/04/16 05:06:47;;;;;;;47.35;29.48;;;6.90;99.90;;;;;;5129255;27;20027;-43
2022/04/16 05:09:13;;;;;;;46.65;28.83;;;6.90;99.90;;;;;;5131184;27;20480;-47
2022/04/16 05:11:39;;;;;;;48.83;29.63;;;7.00;99.90;;;;;;5130905;27;20382;-46
2022/04/16 05:14:04;;;;;;;48.85;30.80;;;7.00;99.90;;;;;;5132222;27;20395;-48
2022/04/16 05:16:30;;;;;;;47.70;29.40;;;7.10;99.90;;;;;;5129043;27;20041;-48
2022/04/16 05:18:56;;;;;;;46.28;30.25;;;7.10;99.90;;;;;;5129343;27;20159;-44
2022/04/16 05:21:21;;;;;;;47.15;28.63;;;7.10;99.90;;;;;;5128814;27;20122;-47
2022/04/16 05:23:47;;;;;;;47.85;29.85;;;7.20;99.90;;;;;;5131640;27;20122;-47
2022/04/16 05:26:13;;;;;;;43.05;28.20;;;7.30;99.90;;;;;;5132852;27;20091;-45
2022/04/16 05:28:39;;;;;;;42.97;27.80;;;7.20;99.90;;;;;;5130138;27;20019;-47
2022/04/16 05:31:06;;;;;;;45.95;29.40;;;7.40;99.90;;;;;;5129776;27;20477;-45
2022/04/16 05:36:17;;;;;;;39.13;27.42;;;7.40;99.90;;;;;;5132166;27;20130;-44
2022/04/16 05:38:43;;;;;;;42.40;26.92;;;7.40;99.90;;;;;;5133380;27;20039;-45
2022/04/16 05:41:09;;;;;;;44.30;28.00;;;7.50;99.90;;;;;;5115853;27;20489;-47
2022/04/16 05:43:34;;;;;;;44.75;28.08;;;7.50;99.90;;;;;;5128494;27;20049;-47
2022/04/16 05:46:00;;;;;;;41.08;27.45;;;7.60;99.90;;;;;;5133880;27;20475;-44
2022/04/16 05:48:26;;;;;;;41.00;27.42;;;7.60;99.90;;;;;;5131720;27;20390;-46
2022/04/16 05:50:52;;;;;;;38.95;26.33;;;7.70;99.90;;;;;;5133767;27;20031;-45
2022/04/16 05:53:18;;;;;;;40.60;27.00;;;7.70;99.90;;;;;;5130795;27;20166;-45
2022/04/16 05:55:47;;;;;;;39.45;25.60;;;7.80;99.90;;;;;;5132642;27;20031;-50
2022/04/16 05:58:13;;;;;;;41.42;26.45;;;7.70;99.90;;;;;;5114670;27;20042;-45
2022/04/16 06:00:39;;;;;;;39.53;26.08;;;7.80;99.90;;;;;;5129883;27;20031;-47
2022/04/16 06:03:05;;;;;;;36.40;24.60;;;7.80;99.90;;;;;;5132715;27;20031;-45
2022/04/16 06:05:31;;;;;;;38.33;25.65;;;7.70;99.90;;;;;;5132689;27;20046;-48
2022/04/16 06:08:00;;;;;;;36.22;25.70;;;7.80;99.90;;;;;;5137862;27;20039;-46
2022/04/16 06:10:26;;;;;;;32.80;22.88;;;7.80;99.90;;;;;;5131521;27;20030;-43
2022/04/16 06:12:52;;;;;;;34.08;23.67;;;7.70;99.90;;;;;;5134824;27;20035;-47
2022/04/16 06:15:18;;;;;;;32.63;21.33;;;7.80;99.90;;;;;;5135194;27;20391;-46
2022/04/16 06:17:44;;;;;;;31.80;22.05;;;7.80;99.90;;;;;;5134422;27;20039;-47
2022/04/16 06:20:10;;;;;;;33.53;22.73;;;7.90;99.90;;;;;;5133737;27;20350;-46
2022/04/16 06:22:37;;;;;;;30.45;20.83;;;7.90;99.90;;;;;;5133252;27;20422;-48
2022/04/16 06:25:03;;;;;;;32.72;21.25;;;8.00;99.90;;;;;;5136758;27;20042;-49
2022/04/16 06:27:29;;;;;;;29.95;20.40;;;8.00;99.90;;;;;;5133987;27;20037;-46
2022/04/16 06:29:55;;;;;;;28.15;20.30;;;8.10;99.90;;;;;;5131767;27;20712;-47
2022/04/16 06:32:20;;;;;;;29.27;19.75;;;8.00;99.90;;;;;;5129541;27;20071;-47
2022/04/16 06:34:46;;;;;;;29.63;20.33;;;8.00;99.90;;;;;;5131784;27;20035;-48
2022/04/16 06:37:12;;;;;;;28.88;19.67;;;7.90;99.90;;;;;;5132111;27;20039;-47
2022/04/16 06:39:38;;;;;;;29.13;19.55;;;7.90;99.90;;;;;;5134132;27;20039;-46
2022/04/16 06:42:04;;;;;;;29.63;18.60;;;7.90;99.90;;;;;;5131884;27;20038;-45
2022/04/16 06:44:31;;;;;;;29.17;19.65;;;7.90;99.90;;;;;;5131092;27;20118;-49
2022/04/16 06:46:57;;;;;;;27.58;18.90;;;8.00;99.90;;;;;;5133640;27;20490;-48
2022/04/16 06:49:26;;;;;;;31.67;21.33;;;8.00;99.90;;;;;;5132075;27;20477;-46
2022/04/16 06:51:52;;;;;;;26.70;18.60;;;8.10;99.90;;;;;;5133128;27;20039;-44
2022/04/16 06:54:18;;;;;;;34.13;22.98;;;8.10;99.90;;;;;;5134429;27;20436;-47
2022/04/16 06:56:44;;;;;;;28.02;18.75;;;8.20;99.90;;;;;;5135867;27;20035;-46
2022/04/16 06:59:10;;;;;;;29.33;18.67;;;8.30;99.90;;;;;;5118049;27;20053;-44
2022/04/16 07:01:36;;;;;;;22.90;15.60;;;8.50;99.90;;;;;;5127787;27;20062;-46
2022/04/16 07:04:02;;;;;;;24.25;17.25;;;8.50;99.90;;;;;;5129973;27;20394;-46
2022/04/16 07:06:27;;;;;;;26.95;16.60;;;8.50;99.90;;;;;;5127064;27;20045;-43
2022/04/16 07:08:53;;;;;;;27.63;16.95;;;8.60;99.90;;;;;;5127045;27;20502;-42
2022/04/16 07:11:19;;;;;;;25.30;17.45;;;8.60;99.90;;;;;;5129179;27;20370;-44
2022/04/16 07:13:44;;;;;;;23.38;15.68;;;8.70;99.90;;;;;;5130819;27;20119;-48
2022/04/16 07:16:10;;;;;;;22.50;15.05;;;8.80;99.90;;;;;;5128274;27;20047;-47
2022/04/16 07:18:36;;;;;;;26.08;17.38;;;8.90;99.90;;;;;;5131294;27;20028;-47
2022/04/16 07:21:01;;;;;;;21.17;14.98;;;9.00;99.90;;;;;;5129302;27;20042;-49
2022/04/16 07:23:27;;;;;;;23.58;15.52;;;9.10;99.90;;;;;;5129504;27;20114;-50
2022/04/16 07:25:53;;;;;;;26.85;15.85;;;9.10;99.90;;;;;;5135627;27;20088;-46
2022/04/16 07:28:21;;;;;;;22.30;15.23;;;9.20;99.90;;;;;;5132827;27;20038;-48
2022/04/16 07:30:50;;;;;;;22.98;16.90;;;9.40;99.90;;;;;;5131798;27;20033;-48
2022/04/16 07:33:16;;;;;;;23.38;16.13;;;9.40;99.90;;;;;;5135370;27;20084;-49
2022/04/16 07:35:42;;;;;;;23.02;15.45;;;9.40;99.90;;;;;;5132431;27;20035;-46
2022/04/16 07:38:07;;;;;;;22.05;14.75;;;9.40;99.90;;;;;;5133155;27;20046;-46
2022/04/16 07:40:36;;;;;;;24.98;15.60;;;9.50;99.90;;;;;;5131729;27;20153;-48
2022/04/16 07:43:02;;;;;;;22.33;15.93;;;9.50;99.90;;;;;;5129976;27;20062;-46
2022/04/16 07:45:32;;;;;;;22.30;14.23;;;9.50;99.90;;;;;;5131781;27;20500;-49
2022/04/16 07:47:58;;;;;;;22.92;15.50;;;9.50;99.90;;;;;;5132212;27;20125;-44
2022/04/16 07:50:23;;;;;;;24.92;14.88;;;9.50;99.90;;;;;;5136135;27;20182;-46
2022/04/16 07:52:49;;;;;;;22.08;15.15;;;9.60;99.90;;;;;;5132663;27;20066;-45
2022/04/16 07:55:16;;;;;;;22.02;15.30;;;9.80;99.90;;;;;;5132400;27;20070;-45
2022/04/16 07:57:42;;;;;;;23.55;15.18;;;9.90;99.90;;;;;;5134025;27;20042;-45
2022/04/16 08:00:10;;;;;;;21.98;14.80;;;9.90;99.90;;;;;;5135284;27;20039;-46
2022/04/16 08:02:36;;;;;;;25.67;15.07;;;10.10;99.90;;;;;;5132545;27;20046;-45
2022/04/16 08:05:02;;;;;;;21.95;15.32;;;10.10;99.90;;;;;;5134619;27;20034;-48
2022/04/16 08:07:27;;;;;;;22.08;14.80;;;10.20;99.90;;;;;;5132536;27;20023;-46
2022/04/16 08:09:53;;;;;;;22.13;13.18;;;10.30;99.90;;;;;;5131363;27;20493;-48
2022/04/16 08:12:19;;;;;;;23.25;14.15;;;10.30;99.90;;;;;;5132492;27;20073;-47
2022/04/16 08:14:44;;;;;;;19.88;13.80;;;10.40;99.90;;;;;;5131253;27;20082;-46
2022/04/16 08:17:10;;;;;;;20.45;13.77;;;10.50;99.90;;;;;;5134707;27;20039;-51
2022/04/16 08:19:36;;;;;;;21.60;13.85;;;10.40;99.90;;;;;;5132730;27;20027;-46
2022/04/16 08:22:07;;;;;;;18.63;12.25;;;10.50;99.90;;;;;;5110532;27;20375;-48
2022/04/16 08:24:41;;;;;;;18.35;12.43;;;10.50;99.90;;;;;;5132723;27;20467;-47
2022/04/16 08:27:07;;;;;;;17.13;11.32;;;10.40;99.90;;;;;;5130545;27;20039;-47
2022/04/16 08:29:34;;;;;;;20.92;13.10;;;10.30;99.90;;;;;;5132273;27;20096;-46
2022/04/16 08:31:59;;;;;;;20.25;12.88;;;10.50;99.90;;;;;;5130614;27;20023;-45
2022/04/16 08:34:25;;;;;;;18.83;12.35;;;10.40;99.90;;;;;;5130870;27;20545;-44
2022/04/16 08:36:51;;;;;;;23.05;12.90;;;10.60;99.90;;;;;;5132180;27;20446;-47
2022/04/16 08:39:16;;;;;;;18.60;11.85;;;10.70;99.90;;;;;;5132765;27;20035;-45
2022/04/16 08:41:42;;;;;;;19.10;12.00;;;10.70;99.90;;;;;;5133207;27;20035;-47
2022/04/16 08:44:08;;;;;;;21.00;11.70;;;10.80;99.90;;;;;;5132430;27;20114;-47
2022/04/16 08:46:35;;;;;;;18.50;12.13;;;10.90;99.90;;;;;;5131901;27;20031;-48
2022/04/16 08:49:01;;;;;;;16.60;10.30;;;11.00;99.90;;;;;;5134226;27;20031;-48
2022/04/16 08:51:27;;;;;;;17.80;10.20;;;11.10;99.90;;;;;;5135049;27;20039;-47
2022/04/16 08:53:53;;;;;;;15.13;9.98;;;11.30;99.90;;;;;;5132452;27;20043;-45
2022/04/16 08:56:19;;;;;;;14.77;9.13;;;11.50;99.90;;;;;;5113884;27;20039;-48
2022/04/16 08:58:45;;;;;;;13.07;9.07;;;11.60;99.90;;;;;;5131454;27;20030;-43
2022/04/16 09:01:11;;;;;;;15.35;10.27;;;11.60;99.90;;;;;;5132352;27;20027;-44
2022/04/16 09:03:39;;;;;;;14.48;9.15;;;11.70;99.90;;;;;;5111361;27;20039;-44
2022/04/16 09:06:05;;;;;;;16.55;9.48;;;11.70;99.90;;;;;;5134420;27;20038;-45
2022/04/16 09:08:32;;;;;;;14.98;9.15;;;11.70;99.90;;;;;;5131233;27;20054;-49
2022/04/16 09:11:25;;;;;;;15.93;9.98;;;12.10;99.90;;;;;;5137104;27;20509;-46
2022/04/16 09:13:54;;;;;;;15.77;9.88;;;12.30;99.90;;;;;;5135479;27;20079;-46
2022/04/16 09:16:20;;;;;;;14.00;9.02;;;12.50;99.90;;;;;;5137135;27;20065;-46
2022/04/16 09:18:56;;;;;;;14.55;9.30;;;12.50;99.90;;;;;;5137428;27;20035;-47
2022/04/16 09:21:26;;;;;;;12.57;7.88;;;12.70;99.90;;;;;;5139426;27;20339;-44
2022/04/16 09:23:59;;;;;;;13.73;7.88;;;12.50;99.90;;;;;;5139562;27;20528;-43
2022/04/16 09:26:32;;;;;;;12.25;7.32;;;12.60;99.90;;;;;;5137176;27;20038;-47
2022/04/16 09:29:09;;;;;;;10.45;6.25;;;12.50;99.90;;;;;;5138056;27;20031;-48
2022/04/16 09:31:38;;;;;;;15.27;6.20;;;12.50;99.90;;;;;;5136741;27;20034;-46
2022/04/16 09:34:05;;;;;;;11.15;6.00;;;12.60;99.90;;;;;;5139153;27;20481;-48
2022/04/16 09:36:31;;;;;;;10.32;5.82;;;12.70;99.90;;;;;;5134006;27;20046;-46
2022/04/16 09:39:04;;;;;;;10.80;6.45;;;12.60;99.90;;;;;;5137517;27;20031;-45
2022/04/16 09:41:34;;;;;;;12.40;7.07;;;12.80;99.90;;;;;;5141222;27;20034;-45
2022/04/16 09:44:03;;;;;;;11.52;6.90;;;13.00;99.90;;;;;;5137896;27;20053;-46
2022/04/16 09:46:31;;;;;;;9.40;5.45;;;13.10;99.90;;;;;;5138499;27;20096;-49
2022/04/16 09:49:04;;;;;;;8.57;4.82;;;13.10;99.90;;;;;;5137915;27;20665;-44
2022/04/16 09:51:42;;;;;;;9.93;5.25;;;13.00;99.90;;;;;;5135394;27;20126;-46
2022/04/16 09:54:09;;;;;;;7.45;4.53;;;13.20;99.90;;;;;;5136594;27;20084;-46
2022/04/16 09:56:37;;;;;;;9.23;4.80;;;13.00;99.90;;;;;;5137377;27;20058;-47
2022/04/16 09:59:05;;;;;;;8.48;4.90;;;13.20;99.90;;;;;;5134584;27;20709;-46
2022/04/16 10:01:38;;;;;;;11.25;5.22;;;13.10;99.90;;;;;;5129805;27;21159;-46
2022/04/16 10:04:04;;;;;;;10.30;5.88;;;13.50;99.90;;;;;;5129498;27;22614;-45
2022/04/16 10:06:30;;;;;;;9.45;5.10;;;13.10;99.90;;;;;;5136770;27;20038;-44
2022/04/16 10:09:00;;;;;;;7.43;4.35;;;13.50;99.90;;;;;;5139458;27;20035;-45
2022/04/16 10:12:59;;;;;;;9.30;4.13;;;13.70;99.90;;;;;;5135306;27;20813;-44
2022/04/16 10:14:37;;;;;;;8.20;4.20;;;13.80;99.90;;;;;;5133962;27;20146;-46
2022/04/16 10:17:42;;;;;;;8.50;4.90;;;13.70;99.90;;;;;;5136430;27;20038;-45
2022/04/16 10:20:10;;;;;;;8.63;4.20;;;13.60;99.90;;;;;;5137307;27;20058;-44
2022/04/16 10:22:36;;;;;;;7.07;3.92;;;13.50;99.90;;;;;;5134847;27;20108;-46
2022/04/16 10:25:03;;;;;;;5.97;3.22;;;13.70;99.90;;;;;;5137776;27;20039;-46
2022/04/16 10:27:39;;;;;;;5.38;2.78;;;13.80;99.90;;;;;;5136550;27;20035;-47
2022/04/16 10:30:11;;;;;;;6.18;2.65;;;13.90;99.90;;;;;;5128501;27;20096;-44
2022/04/16 10:32:44;;;;;;;6.63;3.03;;;14.10;99.90;;;;;;5130750;27;20405;-46
2022/04/16 10:35:15;;;;;;;5.80;2.90;;;14.00;99.90;;;;;;5127635;27;20126;-43
2022/04/16 10:37:42;;;;;;;8.65;3.10;;;14.00;99.90;;;;;;5118110;27;22396;-45
2022/04/16 10:40:22;;;;;;;7.25;3.50;;;13.90;99.90;;;;;;5138864;27;20037;-46
2022/04/16 10:42:52;;;;;;;4.97;2.40;;;13.90;99.90;;;;;;5136156;27;20035;-48
2022/04/16 10:45:18;;;;;;;4.55;2.45;;;14.20;99.90;;;;;;5137523;27;20463;-46
2022/04/16 10:47:44;;;;;;;6.05;2.80;;;14.30;99.90;;;;;;5138776;27;20087;-47
2022/04/16 10:50:17;;;;;;;4.90;2.67;;;14.40;99.90;;;;;;5137727;27;20054;-45
2022/04/16 10:53:02;;;;;;;5.10;2.40;;;14.40;99.90;;;;;;5136282;27;20065;-45
2022/04/16 10:55:31;;;;;;;5.22;2.60;;;14.50;99.90;;;;;;5138921;27;20110;-49
2022/04/16 10:58:02;;;;;;;4.88;2.22;;;14.40;99.90;;;;;;5121911;27;20129;-47
2022/04/16 11:00:45;;;;;;;4.88;2.35;;;14.80;99.80;;;;;;5124939;27;20043;-48
2022/04/16 11:03:12;;;;;;;3.70;1.90;;;14.90;99.90;;;;;;5142125;27;20453;-45
2022/04/16 11:05:41;;;;;;;4.20;2.10;;;14.80;99.30;;;;;;5126440;27;20049;-46
2022/04/16 11:08:08;;;;;;;5.20;2.00;;;14.90;99.80;;;;;;5140101;27;20043;-49
2022/04/16 11:10:33;;;;;;;3.70;1.90;;;15.20;99.60;;;;;;5142191;27;20065;-45
2022/04/16 11:13:02;;;;;;;3.75;1.80;;;15.20;98.40;;;;;;5138847;27;20057;-46
2022/04/16 11:15:28;;;;;;;4.05;1.60;;;14.90;97.30;;;;;;5142668;27;20498;-45
2022/04/16 11:17:54;;;;;;;3.95;1.40;;;15.00;96.40;;;;;;5145059;27;20126;-49
2022/04/16 11:20:21;;;;;;;4.00;1.50;;;15.20;98.10;;;;;;5142679;27;20043;-50
2022/04/16 11:22:47;;;;;;;5.38;2.00;;;15.10;96.40;;;;;;5142810;27;20088;-48
2022/04/16 11:25:13;;;;;;;5.18;1.88;;;15.40;97.30;;;;;;5145684;27;20592;-48
2022/04/16 11:35:59;;;;;;;4.88;1.95;;;15.80;95.30;;;;;;5144419;27;20111;-48
2022/04/16 11:38:29;;;;;;;5.70;2.20;;;15.90;93.00;;;;;;5144120;27;20069;-47
2022/04/16 11:40:59;;;;;;;4.63;2.03;;;15.90;90.20;;;;;;5143322;27;20042;-49
2022/04/16 11:43:25;;;;;;;4.25;2.10;;;15.90;91.40;;;;;;5143168;27;20078;-46
2022/04/16 11:45:52;;;;;;;3.88;1.60;;;15.70;90.30;;;;;;5145240;27;20125;-48
2022/04/16 11:48:17;;;;;;;4.63;1.52;;;15.80;80.80;;;;;;5143043;27;20475;-46
2022/04/16 11:50:44;;;;;;;6.18;2.03;;;15.80;73.70;;;;;;5144126;27;20171;-51
2022/04/16 11:53:13;;;;;;;4.90;1.25;;;15.80;69.60;;;;;;5146156;27;20073;-46
2022/04/16 11:55:46;;;;;;;2.53;0.90;;;15.90;64.00;;;;;;5142530;27;20031;-45
2022/04/16 11:58:12;;;;;;;2.40;1.00;;;15.90;53.90;;;;;;5144101;27;20039;-44
2022/04/16 12:00:48;;;;;;;2.58;0.95;;;16.20;56.20;;;;;;5144658;27;20157;-48
2022/04/16 12:03:14;;;;;;;1.58;0.80;;;16.00;52.80;;;;;;5144232;27;20541;-46
2022/04/16 12:05:47;;;;;;;4.53;1.20;;;16.00;51.50;;;;;;5141762;27;20050;-47
2022/04/16 12:08:14;;;;;;;2.33;1.05;;;16.40;58.00;;;;;;5142035;27;20401;-47
2022/04/16 12:10:44;;;;;;;2.90;0.93;;;16.40;53.30;;;;;;5143485;27;20046;-49
2022/04/16 12:13:12;;;;;;;2.55;0.95;;;16.40;50.20;;;;;;5139549;27;20061;-47
2022/04/16 12:15:43;;;;;;;2.42;0.88;;;16.40;52.00;;;;;;5139060;27;20055;-50
2022/04/16 12:18:15;;;;;;;1.85;0.82;;;16.60;51.10;;;;;;5133478;27;20034;-45
2022/04/16 12:20:43;;;;;;;2.97;0.80;;;16.70;52.00;;;;;;5140270;27;20030;-48
2022/04/16 12:23:13;;;;;;;1.42;0.70;;;16.80;52.80;;;;;;5133017;27;20042;-44
2022/04/16 12:25:41;;;;;;;3.22;0.60;;;17.10;51.30;;;;;;5134095;27;20140;-44
2022/04/16 12:28:12;;;;;;;4.07;0.82;;;17.10;48.80;;;;;;5135099;27;20039;-46
2022/04/16 12:30:38;;;;;;;1.15;0.50;;;17.20;48.00;;;;;;5142784;27;20433;-46
2022/04/16 12:33:05;;;;;;;2.58;0.70;;;17.10;46.10;;;;;;5141595;27;20469;-46
2022/04/16 12:35:35;;;;;;;5.43;0.95;;;17.30;50.40;;;;;;5141705;27;20103;-48
2022/04/16 12:38:03;;;;;;;4.15;0.80;;;16.90;48.20;;;;;;5141090;27;20481;-45
2022/04/16 12:40:29;;;;;;;4.22;0.98;;;17.30;49.60;;;;;;5140301;27;20429;-47
2022/04/16 12:42:57;;;;;;;1.48;0.68;;;17.30;47.90;;;;;;5140143;27;20084;-46
2022/04/16 12:45:23;;;;;;;3.22;0.80;;;17.50;48.10;;;;;;5139805;27;20042;-45
2022/04/16 12:47:50;;;;;;;3.90;0.90;;;17.00;44.70;;;;;;5134350;27;20031;-51
2022/04/16 12:50:16;;;;;;;1.23;0.70;;;17.00;48.80;;;;;;5133504;27;20043;-48
2022/04/16 12:52:43;;;;;;;3.78;0.80;;;17.10;48.40;;;;;;5130654;27;20090;-46
2022/04/16 12:55:09;;;;;;;5.13;1.38;;;17.20;47.20;;;;;;5137092;27;20111;-44
2022/04/16 12:57:35;;;;;;;2.22;0.80;;;17.50;48.20;;;;;;5134573;27;20027;-46
2022/04/16 13:00:00;;;;;;;1.98;0.73;;;17.70;48.60;;;;;;5112916;27;20035;-48
2022/04/16 13:02:26;;;;;;;1.88;0.63;;;17.70;44.20;;;;;;5134053;27;20042;-47